Details From OMDB - Dubai Intl
To OIIE - Imam Khomeini Intl
Flight Number -
Tags Generated
Created
Modified
Stats Distance 649 nm / 1,203 km
Max Altitude 0 ft / 0 m
Waypoints 3
Social Downloads 1
Likes 0
Share VATSIM

Download

Looking for another format? Having issues loading an existing format? Contact us
Advertisement - Login to hide

Notes

Generated

Route

OMDB IKA OIIE

ID Type Via Altitude Latitude Longitude Leg Dist Tot Dist Heading (true) Name
O OMDB APT - 0 ft / 0 m 25.26213˚ 55.34757˚ - 0 nm - -
IKA VOR - 0 ft / 0 m 35.40967˚ 51.17847˚ 646 nm 646 nm 342° / 339° IMAM KHOMEINI VOR-DME
O OIIE APT - 0 ft / 0 m 35.42534˚ 51.12220˚ 2 nm 649 nm 289° / 289° -

Altitude Profile

Advertisement - Login to hide

Weather


0- 5 10 15 20 25 30 35+ Temperature / ° C

Clouds and Precipitation
Forecast for 2017-12-13 06:00 UTC. Updated 42 minutes ago

Ground ~20,000 ft ~40,000 ft Winds

OMDB

Details ICAO OMDB (DXB)
Name DUBAI INTL
Region United Arab Emirates
Timezone Asia/Dubai (UTC+4.0)
Stats Elevation 62 ft / 19 m (AMSL)
Location 25.254912° 55.364260°
Runways 2
Magnetic Variation 2.047° E

METAR

OMDB 130400Z 13004KT CAVOK 18/12 Q1019 NOSIG

Decode

TAF

TAF OMDB 122301Z 1300/1406 11008KT CAVOK PROB30 TEMPO 1307/1313 04015G25KT 4000 BLDU

Decode

Departure Runways

ID Width Length Bearing (true) Bearing (mag) Surface Threshold Offset Overrun Length
12L 197 ft / 60 m 13,124 ft / 4,000 m 121.49° 119.44° Asphalt 1,312 ft / 400 m 395 ft / 120 m
12R 151 ft / 46 m 13,139 ft / 4,005 m 121.48° 119.43° Asphalt 394 ft / 120 m 197 ft / 60 m
30L 151 ft / 46 m 13,139 ft / 4,005 m 301.50° 299.45° Asphalt 2,953 ft / 900 m 197 ft / 60 m
30R 197 ft / 60 m 13,124 ft / 4,000 m 301.51° 299.46° Asphalt 0 ft / 0 m 395 ft / 120 m

OIIE

Details ICAO OIIE (IKA)
Name IMAM KHOMEINI INTL
Region Iran
Timezone Asia/Tehran (UTC+3.5)
Stats Elevation 3,305 ft / 1,007 m (AMSL)
Location 35.418379° 51.143865°
Runways 2
Magnetic Variation 4.667° E

METAR

OIIE 130400Z 30006KT CAVOK 01/M07 Q1024

Decode

TAF

TAF OIIE 122310Z 1300/1406 31004MPS CAVOK

Decode

Destination Runways

ID Width Length Bearing (true) Bearing (mag) Surface Threshold Offset Overrun Length
11L 148 ft / 45 m 13,752 ft / 4,192 m 108.86° 104.19° Asphalt 0 ft / 0 m 394 ft / 120 m
11R 148 ft / 45 m 13,919 ft / 4,243 m 108.83° 104.16° Asphalt 0 ft / 0 m 0 ft / 0 m
29L 148 ft / 45 m 13,919 ft / 4,243 m 288.86° 284.19° Asphalt 1,972 ft / 601 m 0 ft / 0 m
29R 148 ft / 45 m 13,752 ft / 4,192 m 288.89° 284.22° Asphalt 0 ft / 0 m 394 ft / 120 m

Approach Navaids

Runway Type Ident Frequency Range Bearing (true) Bearing (mag) Slope Elevation
29R Localiser IIKA 110.30 MHz 18 nm / 33 km 288.86° 284.20° - 3,305 ft / 1,007 m (AMSL)
29R Glidescope IIKA 110.30 MHz 10 nm / 19 km 288.88° 284.21° 3.00° 3,257 ft / 993 m (AMSL)
29R DME IIKA 110.30 MHz 18 nm / 33 km - - - 3,275 ft / 998 m (AMSL)

Popular Alternatives